createdAt,value
2018-07-11T00:00:09.072Z,93.64
2018-07-11T00:01:09.088Z,94.41
2018-07-11T00:02:09.110Z,94.60
2018-07-11T00:03:09.114Z,94.21
2018-07-11T00:04:09.127Z,94.21
2018-07-11T00:05:09.141Z,94.79
2018-07-11T00:06:09.159Z,93.93
2018-07-11T00:07:09.288Z,94.41
2018-07-11T00:08:09.246Z,94.98
2018-07-11T00:09:09.440Z,94.89
2018-07-11T00:10:09.779Z,94.31
2018-07-11T00:14:09.274Z,94.60
2018-07-11T00:15:09.393Z,94.60
2018-07-11T00:16:09.302Z,94.89
2018-07-11T00:17:09.317Z,95.56
2018-07-11T00:18:09.751Z,95.41
2018-07-11T00:19:09.346Z,94.93
2018-07-11T00:20:09.376Z,96.42
2018-07-11T00:21:09.386Z,95.32
2018-07-11T00:22:09.393Z,95.84
2018-07-11T00:23:09.416Z,96.22
2018-07-11T00:24:09.418Z,95.56
2018-07-11T00:25:09.433Z,95.07
2018-07-11T00:26:09.452Z,96.42
2018-07-11T00:27:09.464Z,96.22
2018-07-11T00:28:09.477Z,96.70
2018-07-11T00:29:09.492Z,96.42
2018-07-11T00:30:09.508Z,95.65
2018-07-11T00:31:09.523Z,95.65
2018-07-11T00:32:09.536Z,95.94
2018-07-11T00:33:09.552Z,96.32
2018-07-11T00:34:09.566Z,96.22
2018-07-11T00:35:09.583Z,95.56
2018-07-11T00:36:09.656Z,95.17
2018-07-11T00:37:09.679Z,95.84
2018-07-11T00:38:09.632Z,96.03
2018-07-11T00:39:09.641Z,95.56
2018-07-11T00:40:09.687Z,95.75
2018-07-11T00:41:09.678Z,94.89
2018-07-11T00:42:09.684Z,96.03
2018-07-11T00:43:09.701Z,95.75
2018-07-11T00:44:09.715Z,95.17
2018-07-11T00:45:09.728Z,95.65
2018-07-11T00:46:09.744Z,94.50
2018-07-11T00:47:09.761Z,95.65
2018-07-11T00:48:09.771Z,95.07
2018-07-11T00:49:09.790Z,95.07
2018-07-11T00:50:09.806Z,94.98
2018-07-11T00:51:09.841Z,95.36
2018-07-11T00:52:09.828Z,94.70
2018-07-11T00:53:09.972Z,94.98
2018-07-11T00:54:10.207Z,95.65
2018-07-11T00:55:09.899Z,94.98
2018-07-11T00:56:09.891Z,94.60
2018-07-11T00:57:09.903Z,95.65
2018-07-11T00:58:10.007Z,94.98
2018-07-11T00:59:09.933Z,94.89
2018-07-11T01:00:09.946Z,95.75
2018-07-11T01:01:09.962Z,95.75
2018-07-11T01:02:09.979Z,95.65
2018-07-11T01:03:10.011Z,95.07
2018-07-11T01:04:10.007Z,95.75
2018-07-11T01:05:10.026Z,95.75
2018-07-11T01:06:10.083Z,95.27
2018-07-11T01:07:10.835Z,95.41
2018-07-11T01:09:10.084Z,96.22
2018-07-11T01:10:10.099Z,95.84
2018-07-11T01:11:10.125Z,96.47
2018-07-11T01:12:10.210Z,95.61
2018-07-11T01:13:10.211Z,95.61
2018-07-11T01:14:10.168Z,94.84
2018-07-11T01:15:10.168Z,95.70
2018-07-11T01:16:10.184Z,95.61
2018-07-11T01:17:10.252Z,96.18
2018-07-11T01:18:10.218Z,95.03
2018-07-11T01:19:10.229Z,95.70
2018-07-11T01:20:10.242Z,95.61
2018-07-11T01:21:10.257Z,95.51
2018-07-11T01:22:10.278Z,95.89
2018-07-11T01:23:10.291Z,95.75
2018-07-11T01:24:10.381Z,94.60
2018-07-11T01:25:10.895Z,95.07
2018-07-11T01:26:10.332Z,94.60
2018-07-11T01:27:10.347Z,94.79
2018-07-11T01:28:10.362Z,95.12
2018-07-11T01:29:10.385Z,95.94
2018-07-11T01:30:10.391Z,95.56
2018-07-11T01:31:10.406Z,95.75
2018-07-11T01:32:10.420Z,96.03
2018-07-11T01:33:10.436Z,96.51
2018-07-11T01:34:10.451Z,97.08
2018-07-11T01:35:10.464Z,96.80
2018-07-11T01:36:10.483Z,96.51
2018-07-11T01:37:10.493Z,95.46
2018-07-11T01:38:10.733Z,95.94
2018-07-11T01:39:10.523Z,96.42
2018-07-11T01:40:10.572Z,96.13
2018-07-11T01:41:10.565Z,96.99
2018-07-11T01:42:10.575Z,97.08
2018-07-11T01:43:10.587Z,96.70
2018-07-11T01:44:10.614Z,96.99
2018-07-11T01:45:10.612Z,96.61
2018-07-11T01:46:10.629Z,96.99
2018-07-11T01:47:10.701Z,97.23
2018-07-11T01:48:10.732Z,97.56
2018-07-11T01:49:10.778Z,98.47
2018-07-11T01:50:10.689Z,98.38
2018-07-11T01:51:10.810Z,98.18
2018-07-11T01:52:10.714Z,97.80
2018-07-11T01:53:11.377Z,97.71
2018-07-11T01:54:10.979Z,97.80
2018-07-11T01:55:10.767Z,97.52
2018-07-11T01:56:10.776Z,97.71
2018-07-11T01:57:10.790Z,97.42
2018-07-11T01:58:10.823Z,97.42
2018-07-11T01:59:10.817Z,97.42
2018-07-11T02:00:10.831Z,97.42
2018-07-11T02:01:10.850Z,98.28
2018-07-11T02:02:10.861Z,97.71
2018-07-11T02:03:10.875Z,97.23
2018-07-11T02:04:10.889Z,98.38
2018-07-11T02:05:10.915Z,99.24
2018-07-11T02:06:10.930Z,98.66
2018-07-11T02:07:10.935Z,98.66
2018-07-11T02:08:10.948Z,99.04
2018-07-11T02:09:10.962Z,98.28
2018-07-11T02:10:10.986Z,98.85
2018-07-11T02:11:10.994Z,98.95
2018-07-11T02:12:11.017Z,98.85
2018-07-11T02:13:11.023Z,98.47
2018-07-11T02:14:11.035Z,98.57
2018-07-11T02:15:11.050Z,99.43
2018-07-11T02:16:11.064Z,99.71
2018-07-11T02:17:11.079Z,98.38
2018-07-11T02:18:11.097Z,98.13
2018-07-11T02:19:11.128Z,99.43
2018-07-11T02:20:11.131Z,98.95
2018-07-11T02:21:11.159Z,99.19
2018-07-11T02:22:11.276Z,99.33
2018-07-11T02:23:11.569Z,98.90
2018-07-11T02:24:11.427Z,98.80
2018-07-11T02:25:11.195Z,98.71
2018-07-11T02:26:11.278Z,98.38
2018-07-11T02:27:11.248Z,97.94
2018-07-11T02:28:11.290Z,98.28
2018-07-11T02:29:11.308Z,98.23
2018-07-11T02:30:11.269Z,99.19
2018-07-11T02:31:11.283Z,99.19
2018-07-11T02:32:11.299Z,99.85
2018-07-11T02:33:11.316Z,98.71
2018-07-11T02:34:11.327Z,98.90
2018-07-11T02:35:11.340Z,99.57
2018-07-11T02:36:11.358Z,99.99
2018-07-11T02:37:11.370Z,99.66
2018-07-11T02:38:11.385Z,99.66
2018-07-11T02:39:11.398Z,99.38
2018-07-11T02:40:11.413Z,98.80
2018-07-11T02:41:11.427Z,98.23
2018-07-11T02:42:11.453Z,98.99
2018-07-11T02:43:11.457Z,99.57
2018-07-11T02:44:11.475Z,99.76
2018-07-11T02:45:11.487Z,99.99
2018-07-11T02:46:11.500Z,99.99
2018-07-11T02:47:11.519Z,99.99
2018-07-11T02:48:11.538Z,98.99
2018-07-11T02:49:11.543Z,99.99
2018-07-11T02:50:11.568Z,99.99
2018-07-11T02:51:11.683Z,99.38
2018-07-11T02:52:11.637Z,98.80
2018-07-11T02:53:11.867Z,99.99
2018-07-11T02:54:11.637Z,99.19
2018-07-11T02:55:11.630Z,98.80
2018-07-11T02:56:11.641Z,99.28
2018-07-11T02:57:11.789Z,99.28
2018-07-11T02:58:11.675Z,99.85
2018-07-11T02:59:11.686Z,99.28
2018-07-11T03:00:11.722Z,99.99
2018-07-11T03:01:11.718Z,99.99
2018-07-11T03:02:11.749Z,99.99
2018-07-11T03:03:11.748Z,99.95
2018-07-11T03:04:11.762Z,99.48
2018-07-11T03:05:11.776Z,98.23
2018-07-11T03:06:11.795Z,98.90
2018-07-11T03:07:11.800Z,99.85
2018-07-11T03:08:11.814Z,99.48
2018-07-11T03:09:11.830Z,99.09
2018-07-11T03:10:11.852Z,98.80
2018-07-11T03:11:11.858Z,99.09
2018-07-11T03:12:11.871Z,98.61
2018-07-11T03:13:11.886Z,99.09
2018-07-11T03:14:11.902Z,99.85
2018-07-11T03:15:12.067Z,98.61
2018-07-11T03:16:11.931Z,98.71
2018-07-11T03:17:11.945Z,98.23
2018-07-11T03:18:11.968Z,98.04
2018-07-11T03:19:11.974Z,98.33
2018-07-11T03:20:11.990Z,98.52
2018-07-11T03:21:12.005Z,98.04
2018-07-11T03:22:12.179Z,97.56
2018-07-11T03:23:12.274Z,97.56
2018-07-11T03:24:12.119Z,97.56
2018-07-11T03:25:12.066Z,99.19
2018-07-11T03:26:12.102Z,99.23
2018-07-11T03:28:12.101Z,99.99
2018-07-11T03:29:12.142Z,99.85
2018-07-11T03:30:12.134Z,99.66
2018-07-11T03:31:12.146Z,99.85
2018-07-11T03:32:12.280Z,99.38
2018-07-11T03:33:12.175Z,99.66
2018-07-11T03:34:12.188Z,99.09
2018-07-11T03:35:12.205Z,99.09
2018-07-11T03:36:12.223Z,98.23
2018-07-11T03:37:12.232Z,98.90
2018-07-11T03:38:12.247Z,99.76
2018-07-11T03:39:12.260Z,98.99
2018-07-11T03:40:12.343Z,98.33
2018-07-11T03:41:12.288Z,99.09
2018-07-11T03:42:12.301Z,98.52
2018-07-11T03:43:12.318Z,98.42
2018-07-11T03:44:12.333Z,97.94
2018-07-11T03:45:12.347Z,97.56
2018-07-11T03:46:12.374Z,99.09
2018-07-11T03:47:12.375Z,99.33
2018-07-11T03:48:12.389Z,99.33
2018-07-11T03:49:12.402Z,97.75
2018-07-11T03:50:12.421Z,98.61
2018-07-11T03:51:12.435Z,98.90
2018-07-11T03:52:12.449Z,98.23
2018-07-11T03:53:12.461Z,98.13
2018-07-11T03:54:12.475Z,98.42
2018-07-11T03:55:12.491Z,97.75
2018-07-11T03:56:12.604Z,98.42
2018-07-11T03:57:12.688Z,97.75
2018-07-11T03:59:12.758Z,98.13
2018-07-11T04:00:14.803Z,98.33
2018-07-11T04:01:12.633Z,98.04
2018-07-11T04:03:12.625Z,98.13
2018-07-11T04:04:12.619Z,98.13
2018-07-11T04:05:12.680Z,98.13
2018-07-11T04:06:12.649Z,98.42
2018-07-11T04:07:12.662Z,97.75
2018-07-11T04:08:12.676Z,97.85
2018-07-11T04:09:12.689Z,97.37
2018-07-11T04:10:12.706Z,97.13
2018-07-11T04:11:12.719Z,97.47
2018-07-11T04:12:12.738Z,97.37
2018-07-11T04:13:12.806Z,98.28
2018-07-11T04:14:12.777Z,97.75
2018-07-11T04:15:12.776Z,97.75
2018-07-11T04:16:12.791Z,98.94
2018-07-11T04:17:12.805Z,98.99
2018-07-11T04:18:12.831Z,97.28
2018-07-11T04:19:12.921Z,97.28
2018-07-11T04:20:12.855Z,98.13
2018-07-11T04:21:12.939Z,97.37
2018-07-11T04:22:12.874Z,98.42
2018-07-11T04:23:12.950Z,96.66
2018-07-11T04:24:12.908Z,96.80
2018-07-11T04:25:12.918Z,96.75
2018-07-11T04:26:12.935Z,96.66
2018-07-11T04:27:12.964Z,97.23
2018-07-11T04:28:12.962Z,96.99
2018-07-11T04:29:12.984Z,96.61
2018-07-11T04:30:12.988Z,96.99
2018-07-11T04:31:13.026Z,96.94
2018-07-11T04:32:13.019Z,96.03
2018-07-11T04:33:13.396Z,97.03
2018-07-11T04:34:13.057Z,96.70
2018-07-11T04:35:13.064Z,96.89
2018-07-11T04:36:13.150Z,96.32
2018-07-11T04:37:13.147Z,96.70
2018-07-11T04:38:13.118Z,95.84
2018-07-11T04:39:13.122Z,96.89
2018-07-11T04:40:13.412Z,96.89
2018-07-11T04:41:13.191Z,96.32
2018-07-11T04:42:13.176Z,96.89
2018-07-11T04:43:13.180Z,96.80
2018-07-11T04:44:13.253Z,96.22
2018-07-11T04:46:13.232Z,95.94
2018-07-11T04:47:13.444Z,95.84
2018-07-11T04:48:13.252Z,95.84
2018-07-11T04:49:13.319Z,96.13
2018-07-11T04:51:13.339Z,95.94
2018-07-11T04:52:13.320Z,96.13
2018-07-11T04:53:13.463Z,95.84
2018-07-11T04:54:13.374Z,96.22
2018-07-11T04:55:13.357Z,95.36
2018-07-11T04:56:13.533Z,96.22
2018-07-11T04:57:13.819Z,96.51
2018-07-11T04:58:13.558Z,95.75
2018-07-11T04:59:13.427Z,94.98
2018-07-11T05:00:13.555Z,95.46
2018-07-11T05:01:13.523Z,96.13
2018-07-11T05:03:13.463Z,95.56
2018-07-11T05:04:14.225Z,95.56
2018-07-11T05:05:13.490Z,95.75
2018-07-11T05:06:13.507Z,95.65
2018-07-11T05:07:13.856Z,95.56
2018-07-11T05:08:13.712Z,96.03
2018-07-11T05:09:13.571Z,94.60
2018-07-11T05:10:13.573Z,94.60
2018-07-11T05:13:13.659Z,95.56
2018-07-11T05:14:13.743Z,95.46
2018-07-11T05:15:13.663Z,95.84
2018-07-11T05:16:13.691Z,96.51
2018-07-11T05:17:13.680Z,96.42
2018-07-11T05:18:13.680Z,96.22
2018-07-11T05:19:13.696Z,94.89
2018-07-11T05:20:13.707Z,95.17
2018-07-11T05:21:13.721Z,94.79
2018-07-11T05:22:13.739Z,94.98
2018-07-11T05:23:13.752Z,95.75
2018-07-11T05:24:13.766Z,94.60
2018-07-11T05:25:13.831Z,94.79
2018-07-11T05:26:14.598Z,94.89
2018-07-11T05:27:14.806Z,94.51
2018-07-11T05:28:14.599Z,94.26
2018-07-11T05:29:13.901Z,93.60
2018-07-11T05:30:14.292Z,93.31
2018-07-11T05:31:15.281Z,92.54
2018-07-11T05:32:14.120Z,92.07
2018-07-11T05:33:14.192Z,92.93
2018-07-11T05:34:14.833Z,93.69
2018-07-11T05:35:13.937Z,92.54
2018-07-11T05:36:14.943Z,91.59
2018-07-11T05:37:14.429Z,91.88
2018-07-11T05:38:14.222Z,91.97
2018-07-11T05:39:14.099Z,91.78
2018-07-11T05:40:14.655Z,91.49
2018-07-11T05:41:14.061Z,91.39
2018-07-11T05:42:14.067Z,92.25
2018-07-11T05:43:14.052Z,92.35
2018-07-11T05:44:14.097Z,91.53
2018-07-11T05:45:14.114Z,91.44
2018-07-11T05:46:14.194Z,91.83
2018-07-11T05:47:14.107Z,91.35
2018-07-11T05:49:14.203Z,93.26
2018-07-11T05:50:15.054Z,92.11
2018-07-11T05:51:14.158Z,91.92
2018-07-11T05:52:14.321Z,91.53
2018-07-11T05:54:14.205Z,90.48
2018-07-11T05:55:14.219Z,90.67
2018-07-11T05:56:14.232Z,91.06
2018-07-11T05:57:14.269Z,91.63
2018-07-11T05:58:14.261Z,90.58
2018-07-11T05:59:14.274Z,91.20
2018-07-11T06:00:14.527Z,91.11
2018-07-11T06:01:14.340Z,90.44
2018-07-11T06:02:14.441Z,91.11
2018-07-11T06:04:14.738Z,90.34
2018-07-11T06:05:14.354Z,90.05
2018-07-11T06:06:14.369Z,90.29
2018-07-11T06:07:14.395Z,91.05
2018-07-11T06:08:14.422Z,89.62
2018-07-11T06:09:14.414Z,88.37
2018-07-11T06:10:14.588Z,88.09
2018-07-11T06:11:15.368Z,89.72
2018-07-11T06:12:14.457Z,89.43
2018-07-11T06:13:15.039Z,87.80
2018-07-11T06:15:14.501Z,86.88
2018-07-11T06:16:14.575Z,87.13
2018-07-11T06:17:14.530Z,87.17
2018-07-11T06:18:14.550Z,87.17
2018-07-11T06:19:14.639Z,86.88
2018-07-11T06:20:14.591Z,85.88
2018-07-11T06:21:14.593Z,86.08
2018-07-11T06:22:14.612Z,86.36
2018-07-11T06:23:14.620Z,87.55
2018-07-11T06:24:14.635Z,87.55
2018-07-11T06:25:14.651Z,87.37
2018-07-11T06:26:14.670Z,87.17
2018-07-11T06:27:14.680Z,87.27
2018-07-11T06:28:14.712Z,87.55
2018-07-11T06:29:14.711Z,88.03
2018-07-11T06:30:14.740Z,86.88
2018-07-11T06:31:14.857Z,86.98
2018-07-11T06:32:14.761Z,85.64
2018-07-11T06:33:14.783Z,86.31
2018-07-11T06:34:14.788Z,87.27
2018-07-11T06:35:14.803Z,87.17
2018-07-11T06:36:14.820Z,87.27
2018-07-11T06:37:14.850Z,87.17
2018-07-11T06:38:14.849Z,86.41
2018-07-11T06:40:14.934Z,85.16
2018-07-11T06:41:15.263Z,85.54
2018-07-11T06:42:14.909Z,85.88
2018-07-11T06:43:14.923Z,86.50
2018-07-11T06:44:14.939Z,85.54
2018-07-11T06:45:14.955Z,85.78
2018-07-11T06:46:14.972Z,85.97
2018-07-11T06:47:14.988Z,85.39
2018-07-11T06:48:15.004Z,85.30
2018-07-11T06:49:15.017Z,86.16
2018-07-11T06:50:15.032Z,85.11
2018-07-11T06:51:15.056Z,85.39
2018-07-11T06:52:15.069Z,85.39
2018-07-11T06:53:15.080Z,87.02
2018-07-11T06:54:15.093Z,85.88
2018-07-11T06:55:15.108Z,85.97
2018-07-11T06:56:15.672Z,85.68
2018-07-11T06:57:15.817Z,85.39
2018-07-11T06:58:16.087Z,85.88
2018-07-11T06:59:15.168Z,85.88
2018-07-11T07:00:15.182Z,85.58
2018-07-11T07:01:15.198Z,85.58
2018-07-11T07:02:15.214Z,85.88
2018-07-11T07:03:15.234Z,85.97
2018-07-11T07:04:15.927Z,85.58
2018-07-11T07:05:15.376Z,86.35
2018-07-11T07:06:15.803Z,86.74
2018-07-11T07:07:15.299Z,85.97
2018-07-11T07:08:15.307Z,86.64
2018-07-11T07:09:15.385Z,86.45
2018-07-11T07:10:15.361Z,86.45
2018-07-11T07:11:15.354Z,86.68
2018-07-11T07:12:15.367Z,85.34
2018-07-11T07:13:16.524Z,85.44
2018-07-11T07:14:15.784Z,85.44
2018-07-11T07:15:16.159Z,85.25
2018-07-11T07:16:15.604Z,84.95
2018-07-11T07:17:15.624Z,85.48
2018-07-11T07:18:15.466Z,86.15
2018-07-11T07:19:15.475Z,86.54
2018-07-11T07:21:15.623Z,85.77
2018-07-11T07:22:15.909Z,84.81
2018-07-11T07:23:15.538Z,84.42
2018-07-11T07:24:15.561Z,84.71
2018-07-11T07:25:15.578Z,85.48
2018-07-11T07:26:15.584Z,86.15
2018-07-11T07:27:15.600Z,85.10
2018-07-11T07:28:15.620Z,84.81
2018-07-11T07:29:15.634Z,84.52
2018-07-11T07:30:15.650Z,85.67
2018-07-11T07:31:15.666Z,84.71
2018-07-11T07:32:15.675Z,84.47
2018-07-11T07:33:15.694Z,84.18
2018-07-11T07:34:15.713Z,84.81
2018-07-11T07:35:15.726Z,85.19
2018-07-11T07:36:15.748Z,85.58
2018-07-11T07:37:15.755Z,85.04
2018-07-11T07:38:15.772Z,85.04
2018-07-11T07:39:15.789Z,85.42
2018-07-11T07:40:15.815Z,85.24
2018-07-11T07:41:15.838Z,85.42
2018-07-11T07:42:15.840Z,86.19
2018-07-11T07:43:15.849Z,84.66
2018-07-11T07:44:15.865Z,85.14
2018-07-11T07:45:15.928Z,85.14
2018-07-11T07:46:16.101Z,85.04
2018-07-11T07:47:15.916Z,85.33
2018-07-11T07:48:15.940Z,84.95
2018-07-11T07:49:15.943Z,85.24
2018-07-11T07:50:15.983Z,85.91
2018-07-11T07:51:15.976Z,85.91
2018-07-11T07:52:15.994Z,85.52
2018-07-11T07:53:16.024Z,85.47
2018-07-11T07:54:16.030Z,86.14
2018-07-11T07:55:16.042Z,85.28
2018-07-11T07:56:16.052Z,85.28
2018-07-11T07:57:16.066Z,85.75
2018-07-11T07:58:16.087Z,85.28
2018-07-11T07:59:16.128Z,85.57
2018-07-11T08:00:16.117Z,85.08
2018-07-11T08:01:16.205Z,85.57
2018-07-11T08:02:16.148Z,85.37
2018-07-11T08:03:16.169Z,85.18
2018-07-11T08:04:16.183Z,85.08
2018-07-11T08:05:16.338Z,85.47
2018-07-11T08:06:16.231Z,84.99
2018-07-11T08:07:16.238Z,85.37
2018-07-11T08:08:16.247Z,85.37
2018-07-11T08:09:16.288Z,84.41
2018-07-11T08:10:16.292Z,84.31
2018-07-11T08:11:16.308Z,84.22
2018-07-11T08:12:16.509Z,84.41
2018-07-11T08:13:16.426Z,84.99
2018-07-11T08:14:16.354Z,85.28
2018-07-11T08:15:16.355Z,85.18
2018-07-11T08:16:16.370Z,84.22
2018-07-11T08:17:16.428Z,84.41
2018-07-11T08:18:16.407Z,84.31
2018-07-11T08:20:18.297Z,84.89
2018-07-11T08:21:16.813Z,85.95
2018-07-11T08:22:16.468Z,85.28
2018-07-11T08:23:16.480Z,85.28
2018-07-11T08:24:16.498Z,84.89
2018-07-11T08:25:16.514Z,84.36
2018-07-11T08:26:16.530Z,85.22
2018-07-11T08:27:16.626Z,85.22
2018-07-11T08:28:16.561Z,83.78
2018-07-11T08:29:16.618Z,83.59
2018-07-11T08:30:18.628Z,83.78
2018-07-11T08:31:17.883Z,84.17
2018-07-11T08:32:16.628Z,84.07
2018-07-11T08:33:16.644Z,83.30
2018-07-11T08:34:16.659Z,84.26
2018-07-11T08:35:16.672Z,83.78
2018-07-11T08:36:16.689Z,84.07
2018-07-11T08:37:16.854Z,83.25
2018-07-11T08:38:16.722Z,82.92
2018-07-11T08:39:16.841Z,82.24
2018-07-11T08:40:16.767Z,83.40
2018-07-11T08:41:16.819Z,82.92
2018-07-11T08:42:16.789Z,83.78
2018-07-11T08:43:17.063Z,83.97
2018-07-11T08:44:16.938Z,84.07
2018-07-11T08:45:16.846Z,84.07
2018-07-11T08:46:16.882Z,83.78
2018-07-11T08:47:16.900Z,83.78
2018-07-11T08:48:16.941Z,84.74
2018-07-11T08:49:16.895Z,84.84
2018-07-11T08:51:16.923Z,85.18
2018-07-11T08:52:16.952Z,85.18
2018-07-11T08:53:16.954Z,84.70
2018-07-11T08:54:16.972Z,84.70
2018-07-11T08:55:16.987Z,85.18
2018-07-11T08:56:17.001Z,85.57
2018-07-11T08:57:17.018Z,85.08
2018-07-11T08:58:17.038Z,85.03
2018-07-11T08:59:17.072Z,85.41
2018-07-11T09:00:17.066Z,85.71
2018-07-11T09:01:17.083Z,85.61
2018-07-11T09:02:17.096Z,85.80
2018-07-11T09:03:17.125Z,85.61
2018-07-11T09:04:17.142Z,85.32
2018-07-11T09:05:17.155Z,84.55
2018-07-11T09:06:17.162Z,84.64
2018-07-11T09:07:17.188Z,85.51
2018-07-11T09:08:17.675Z,84.64
2018-07-11T09:09:17.281Z,84.45
2018-07-11T09:11:17.325Z,84.64
2018-07-11T09:12:18.084Z,84.64
2018-07-11T09:13:17.269Z,85.22
2018-07-11T09:14:17.294Z,85.13
2018-07-11T09:15:17.622Z,85.18
2018-07-11T09:16:17.415Z,84.99
2018-07-11T09:17:17.332Z,86.09
2018-07-11T09:18:17.570Z,85.95
2018-07-11T09:19:17.553Z,85.61
2018-07-11T09:20:17.494Z,85.66
2018-07-11T09:21:17.559Z,86.24
2018-07-11T09:23:19.133Z,86.62
2018-07-11T09:24:17.456Z,86.28
2018-07-11T09:25:18.647Z,86.09
2018-07-11T09:26:17.475Z,86.18
2018-07-11T09:27:17.489Z,85.22
2018-07-11T09:28:17.519Z,85.61
2018-07-11T09:29:17.517Z,85.61
2018-07-11T09:30:17.539Z,85.13
2018-07-11T09:31:17.552Z,84.94
2018-07-11T09:32:17.566Z,84.98
2018-07-11T09:33:18.235Z,85.65
2018-07-11T09:34:17.614Z,84.11
2018-07-11T09:35:17.615Z,83.83
2018-07-11T09:36:17.667Z,83.15
2018-07-11T09:37:17.660Z,83.29
2018-07-11T09:38:17.663Z,82.42
2018-07-11T09:39:17.692Z,82.42
2018-07-11T09:40:17.691Z,82.42
2018-07-11T09:41:17.709Z,82.23
2018-07-11T09:43:17.743Z,81.56
2018-07-11T09:44:17.757Z,81.37
2018-07-11T09:45:17.773Z,81.84
2018-07-11T09:46:17.795Z,82.42
2018-07-11T09:47:17.810Z,81.98
2018-07-11T09:48:17.828Z,82.46
2018-07-11T09:49:17.835Z,81.46
2018-07-11T09:50:19.824Z,81.70
2018-07-11T09:51:17.874Z,81.30
2018-07-11T09:52:17.992Z,81.79
2018-07-11T09:54:17.928Z,80.92
2018-07-11T09:55:17.939Z,81.02
2018-07-11T09:56:18.172Z,81.37
2018-07-11T09:58:20.314Z,81.02
2018-07-11T09:59:18.007Z,80.60
2018-07-11T10:00:18.022Z,80.88
2018-07-11T10:01:18.035Z,80.50
2018-07-11T10:02:18.724Z,80.11
2018-07-11T10:03:18.067Z,80.21
2018-07-11T10:04:18.084Z,80.88
2018-07-11T10:05:18.178Z,80.30
2018-07-11T10:06:18.120Z,80.60
2018-07-11T10:07:18.131Z,79.67
2018-07-11T10:08:18.151Z,79.15
2018-07-11T10:09:18.167Z,79.63
2018-07-11T10:10:18.180Z,80.11
2018-07-11T10:11:18.195Z,80.88
2018-07-11T10:12:18.238Z,80.69
2018-07-11T10:13:18.226Z,80.60
2018-07-11T10:14:18.252Z,80.40
2018-07-11T10:15:18.262Z,80.79
2018-07-11T10:16:18.275Z,80.21
2018-07-11T10:17:18.293Z,80.69
2018-07-11T10:18:18.308Z,80.21
2018-07-11T10:19:18.326Z,80.84
2018-07-11T10:20:18.646Z,81.61
2018-07-11T10:22:18.370Z,81.61
2018-07-11T10:23:18.393Z,80.75
2018-07-11T10:24:18.415Z,80.27
2018-07-11T10:25:18.426Z,80.65
2018-07-11T10:26:18.437Z,81.23
2018-07-11T10:27:18.454Z,81.52
2018-07-11T10:29:19.095Z,80.50
2018-07-11T10:30:19.063Z,80.50
2018-07-11T10:32:18.533Z,80.25
2018-07-11T10:33:18.559Z,79.00
2018-07-11T10:34:18.563Z,80.35
2018-07-11T10:35:18.586Z,79.28
2018-07-11T10:36:18.599Z,79.82
2018-07-11T10:37:18.614Z,81.46
2018-07-11T10:38:18.632Z,82.42
2018-07-11T10:39:18.649Z,82.27
2018-07-11T10:40:18.989Z,81.50
2018-07-11T10:41:18.684Z,80.54
2018-07-11T10:42:20.028Z,82.27
2018-07-11T10:43:18.707Z,81.50
2018-07-11T10:44:18.725Z,80.25
2018-07-11T10:45:18.740Z,80.88
2018-07-11T10:46:18.755Z,81.70
2018-07-11T10:47:18.775Z,80.63
2018-07-11T10:48:18.791Z,80.83
2018-07-11T10:49:19.119Z,80.25
2018-07-11T10:50:18.825Z,80.44
2018-07-11T10:51:18.850Z,80.44
2018-07-11T10:52:19.822Z,80.19
2018-07-11T10:53:19.600Z,78.65
2018-07-11T10:54:18.885Z,79.61
2018-07-11T10:55:18.963Z,79.43
2018-07-11T10:56:18.917Z,79.03
2018-07-11T10:57:18.946Z,80.04
2018-07-11T10:58:18.949Z,79.03
2018-07-11T10:59:18.967Z,79.03
2018-07-11T11:00:35.970Z,78.94
2018-07-11T11:01:19.099Z,79.13
2018-07-11T11:02:19.030Z,79.43
2018-07-11T11:03:19.032Z,80.29
2018-07-11T11:04:19.052Z,80.63
2018-07-11T11:05:19.062Z,81.70
2018-07-11T11:06:21.044Z,81.88
2018-07-11T11:07:19.094Z,82.71
2018-07-11T11:08:19.109Z,83.29
2018-07-11T11:09:19.152Z,85.02
2018-07-11T11:10:19.721Z,86.56
2018-07-11T11:11:20.462Z,86.46
2018-07-11T11:12:19.795Z,87.90
2018-07-11T11:13:19.963Z,87.76
2018-07-11T11:14:19.737Z,90.17
2018-07-11T11:15:20.134Z,90.26
2018-07-11T11:16:19.237Z,90.45
2018-07-11T11:17:19.769Z,90.65
2018-07-11T11:19:19.398Z,94.21
2018-07-11T11:20:19.304Z,94.40
2018-07-11T11:21:19.317Z,96.13
2018-07-11T11:22:19.333Z,96.08
2018-07-11T11:23:19.359Z,97.42
2018-07-11T11:24:19.379Z,97.62
2018-07-11T11:25:19.382Z,98.39
2018-07-11T11:26:19.397Z,99.99
2018-07-11T11:27:19.411Z,99.99
2018-07-11T11:28:19.434Z,99.99
2018-07-11T11:29:19.444Z,99.99
2018-07-11T11:30:19.458Z,99.99
2018-07-11T11:31:19.562Z,99.99
2018-07-11T11:32:19.490Z,99.99
2018-07-11T11:33:19.506Z,99.99
2018-07-11T11:34:19.523Z,99.99
2018-07-11T11:37:19.591Z,99.99
2018-07-11T11:38:19.637Z,99.99
2018-07-11T11:39:19.605Z,99.99
2018-07-11T11:40:19.615Z,99.99
2018-07-11T11:41:19.632Z,99.99
2018-07-11T11:42:20.053Z,99.99
2018-07-11T11:43:19.664Z,99.99
2018-07-11T11:44:19.753Z,99.99
2018-07-11T11:46:19.709Z,99.99
2018-07-11T11:47:19.724Z,99.99
2018-07-11T11:48:19.738Z,99.99
2018-07-11T11:49:19.755Z,99.99
2018-07-11T11:50:19.774Z,99.99
2018-07-11T11:51:19.796Z,99.99
2018-07-11T11:52:19.799Z,99.99
2018-07-11T11:53:19.820Z,99.99
2018-07-11T11:54:19.841Z,99.99
2018-07-11T11:55:19.851Z,99.99
2018-07-11T11:56:19.863Z,99.99
2018-07-11T11:57:19.889Z,99.99
2018-07-11T11:58:19.899Z,99.99
2018-07-11T11:59:19.911Z,99.99
2018-07-11T12:00:19.934Z,99.99
2018-07-11T12:01:20.360Z,99.99
2018-07-11T12:02:19.965Z,99.99
2018-07-11T12:03:19.972Z,99.99
2018-07-11T12:04:20.061Z,99.99
2018-07-11T12:05:20.008Z,99.99
2018-07-11T12:06:20.021Z,99.99
2018-07-11T12:07:20.040Z,99.99
2018-07-11T12:08:20.055Z,99.99
2018-07-11T12:09:20.075Z,99.99
2018-07-11T12:10:20.084Z,99.99
2018-07-11T12:11:20.151Z,99.99
2018-07-11T12:12:20.142Z,99.99
2018-07-11T12:13:20.132Z,99.99
2018-07-11T12:14:20.145Z,99.99
2018-07-11T12:15:20.160Z,99.99
2018-07-11T12:16:20.197Z,99.99
2018-07-11T12:17:20.191Z,99.99
2018-07-11T12:18:20.208Z,99.99
2018-07-11T12:19:20.221Z,99.99
2018-07-11T12:20:20.238Z,99.99
2018-07-11T12:21:20.283Z,99.99
2018-07-11T12:22:20.267Z,99.99
2018-07-11T12:23:20.301Z,99.99
2018-07-11T12:24:20.839Z,99.99
2018-07-11T12:25:20.317Z,99.99
2018-07-11T12:26:20.334Z,99.99
2018-07-11T12:27:20.349Z,99.99
2018-07-11T12:28:20.363Z,99.99
2018-07-11T12:29:20.377Z,99.99
2018-07-11T12:30:20.392Z,99.99
2018-07-11T12:31:20.409Z,99.99
2018-07-11T12:32:20.950Z,99.99
2018-07-11T12:33:20.998Z,99.99
2018-07-11T12:34:20.458Z,99.99
2018-07-11T12:36:20.509Z,99.99
2018-07-11T12:37:20.507Z,99.99
2018-07-11T12:38:20.517Z,99.99
2018-07-11T12:39:20.557Z,99.99
2018-07-11T12:40:20.593Z,99.99
2018-07-11T12:41:20.589Z,99.99
2018-07-11T12:42:20.615Z,99.99
2018-07-11T12:43:20.608Z,99.99
2018-07-11T12:44:20.794Z,99.99
2018-07-11T12:45:22.498Z,99.99
2018-07-11T12:46:21.405Z,99.99
2018-07-11T12:47:20.666Z,99.99
2018-07-11T12:48:20.906Z,99.99
2018-07-11T12:49:20.691Z,99.99
2018-07-11T12:50:20.708Z,99.99
2018-07-11T12:51:21.336Z,99.99
2018-07-11T12:52:21.252Z,99.99
2018-07-11T12:53:20.760Z,99.99
2018-07-11T12:54:20.798Z,99.99
2018-07-11T12:55:20.812Z,99.99
2018-07-11T12:56:20.818Z,99.99
2018-07-11T12:57:21.036Z,99.99
2018-07-11T12:58:20.840Z,99.99
2018-07-11T12:59:20.852Z,99.99
2018-07-11T13:00:20.865Z,99.99
2018-07-11T13:01:20.881Z,99.99
2018-07-11T13:02:20.896Z,99.99
2018-07-11T13:03:20.931Z,99.99
2018-07-11T13:04:20.977Z,99.99
2018-07-11T13:05:20.943Z,99.99
2018-07-11T13:06:20.976Z,99.99
2018-07-11T13:07:20.974Z,99.99
2018-07-11T13:08:20.986Z,99.99
2018-07-11T13:09:21.002Z,99.99
2018-07-11T13:10:21.184Z,99.99
2018-07-11T13:11:21.180Z,99.99
2018-07-11T13:12:22.413Z,99.99
2018-07-11T13:14:24.302Z,99.99
2018-07-11T13:15:21.278Z,99.99
2018-07-11T13:16:21.233Z,99.99
2018-07-11T13:17:21.480Z,99.99
2018-07-11T13:18:21.144Z,99.99
2018-07-11T13:19:21.181Z,99.99
2018-07-11T13:20:21.176Z,99.99
2018-07-11T13:21:21.827Z,99.99
2018-07-11T13:22:21.206Z,99.99
2018-07-11T13:23:21.280Z,99.99
2018-07-11T13:24:21.825Z,99.99
2018-07-11T13:25:21.442Z,99.99
2018-07-11T13:26:21.278Z,99.99